Time;durP1;ratioP1;P1;durP2;ratioP2;P2;SDS_P1;SDS_P2;PMS_P1;PMS_P2;Temp;Humidity;BMP_temperature;BMP_pressure;BME280_temperature;BME280_humidity;BME280_pressure;Samples;Min_cycle;Max_cycle;Signal;HPM_P1;HPM_P2
2023/12/02 00:00:02;;;;;;;21.90;15.50;;;;;;;3.58;100.00;100045.47;105645;1258;63913;-79
2023/12/02 00:02:38;;;;;;;22.40;16.00;;;;;;;3.61;100.00;100046.92;105686;1254;72735;-79
2023/12/02 00:05:05;;;;;;;20.30;14.50;;;;;;;3.59;100.00;100047.70;105561;1261;61213;-76
2023/12/02 00:07:32;;;;;;;19.50;15.20;;;;;;;3.56;100.00;100036.59;105598;1254;60412;-78
2023/12/02 00:09:59;;;;;;;22.00;15.20;;;;;;;3.53;100.00;100036.00;105615;1259;72408;-80
2023/12/02 00:12:26;;;;;;;18.70;14.70;;;;;;;3.48;100.00;100036.54;105665;1258;63565;-76
2023/12/02 00:14:53;;;;;;;19.30;14.70;;;;;;;3.44;100.00;100044.98;105568;1256;71281;-78
2023/12/02 00:17:20;;;;;;;23.10;15.30;;;;;;;3.42;100.00;100062.16;105635;1254;61050;-77
2023/12/02 00:19:47;;;;;;;22.70;15.90;;;;;;;3.39;100.00;100073.00;105653;1255;60434;-78
2023/12/02 00:22:14;;;;;;;21.70;15.70;;;;;;;3.36;100.00;100071.39;105646;1258;73703;-80
2023/12/02 00:24:41;;;;;;;21.00;15.40;;;;;;;3.35;100.00;100084.08;105577;1258;63973;-78
2023/12/02 00:27:08;;;;;;;22.10;17.50;;;;;;;3.35;100.00;100090.61;105680;1254;72791;-79
2023/12/02 00:29:35;;;;;;;21.90;16.60;;;;;;;3.36;100.00;100092.99;105651;1259;61038;-78
2023/12/02 00:32:02;;;;;;;22.20;16.00;;;;;;;3.37;100.00;100072.94;106508;1254;60522;-76
2023/12/02 00:34:29;;;;;;;21.20;16.20;;;;;;;3.38;100.00;100050.75;105997;1254;72744;-79
2023/12/02 00:36:57;;;;;;;23.50;17.20;;;;;;;3.39;100.00;100054.34;105747;1258;62407;-77
2023/12/02 00:39:23;;;;;;;25.00;18.00;;;;;;;3.42;100.00;100060.64;105657;1254;71103;-77
2023/12/02 00:41:50;;;;;;;23.10;17.00;;;;;;;3.40;100.00;100071.78;105800;1260;61816;-79
2023/12/02 00:44:19;;;;;;;25.00;17.20;;;;;;;3.39;100.00;100061.26;105667;1258;60877;-80
2023/12/02 00:46:46;;;;;;;21.10;15.80;;;;;;;3.39;100.00;100052.30;105609;1254;73929;-76
2023/12/02 00:49:13;;;;;;;24.50;18.20;;;;;;;3.39;100.00;100046.42;106230;1254;63935;-76
2023/12/02 00:51:40;;;;;;;23.30;16.60;;;;;;;3.39;100.00;100052.79;106428;1257;72651;-78
2023/12/02 00:54:07;;;;;;;23.60;17.60;;;;;;;3.42;100.00;100064.62;105913;1257;60549;-76
2023/12/02 00:56:34;;;;;;;25.20;18.80;;;;;;;3.42;100.00;100076.67;105707;1257;60368;-78
2023/12/02 00:59:02;;;;;;;27.30;18.20;;;;;;;3.41;100.00;100077.09;105693;1254;72433;-78
2023/12/02 01:01:29;;;;;;;24.90;18.00;;;;;;;3.41;100.00;100082.63;105574;1257;63881;-78
2023/12/02 01:03:56;;;;;;;26.40;19.40;;;;;;;3.38;100.00;100080.66;105569;1254;72474;-78
2023/12/02 01:08:54;;;;;;;23.60;16.90;;;;;;;3.40;100.00;100061.75;102725;1293;600178;-78
2023/12/02 01:11:22;;;;;;;19.90;16.20;;;;;;;3.36;100.00;100057.23;104985;1266;59599;-79
2023/12/02 01:13:50;;;;;;;24.00;18.00;;;;;;;3.30;100.00;100059.20;104812;1266;59369;-79
2023/12/02 01:16:20;;;;;;;22.70;16.90;;;;;;;3.24;100.00;100059.79;104814;1271;72385;-77
2023/12/02 01:18:47;;;;;;;25.10;16.80;;;;;;;3.18;100.00;100060.52;105470;1257;62324;-78
2023/12/02 01:21:15;;;;;;;25.80;17.40;;;;;;;3.14;100.00;100056.52;105639;1258;71372;-77
2023/12/02 01:23:43;;;;;;;23.80;16.50;;;;;;;3.12;100.00;100052.82;105439;1254;225877;-79
2023/12/02 01:26:11;;;;;;;25.50;16.30;;;;;;;3.10;100.00;100042.16;105688;1259;59279;-77
2023/12/02 01:28:39;;;;;;;21.10;16.90;;;;;;;3.07;100.00;100039.36;105705;1254;71911;-78
2023/12/02 01:31:07;;;;;;;23.20;16.80;;;;;;;3.05;100.00;100033.55;105582;1256;63645;-77
2023/12/02 01:33:34;;;;;;;24.50;17.60;;;;;;;3.06;100.00;100031.79;105470;1255;72487;-78
2023/12/02 01:36:03;;;;;;;22.30;16.50;;;;;;;3.07;100.00;100027.61;105718;1256;59908;-78
2023/12/02 01:38:31;;;;;;;20.50;15.90;;;;;;;3.08;100.00;100023.28;105605;1257;60505;-80
2023/12/02 01:40:58;;;;;;;23.40;16.90;;;;;;;3.10;100.00;100027.84;105942;1253;73784;-78
2023/12/02 01:43:26;;;;;;;23.80;17.50;;;;;;;3.11;100.00;100031.09;105944;1252;63741;-77
2023/12/02 01:45:55;;;;;;;22.40;16.50;;;;;;;3.10;100.00;100036.13;105710;1257;72716;-79
2023/12/02 01:48:25;;;;;;;24.40;17.70;;;;;;;3.09;100.00;100044.28;105846;1253;59695;-79
2023/12/02 01:50:54;;;;;;;21.40;16.20;;;;;;;3.11;100.00;100039.02;105842;1253;60395;-77
2023/12/02 01:53:21;;;;;;;24.10;18.60;;;;;;;3.12;100.00;100040.38;105643;1255;73125;-77
2023/12/02 01:55:49;;;;;;;21.90;16.70;;;;;;;3.09;100.00;100044.47;105653;1253;62599;-80
2023/12/02 01:58:17;;;;;;;25.10;19.10;;;;;;;3.07;100.00;100041.25;105664;1258;72754;-76
2023/12/02 02:00:45;;;;;;;24.00;17.20;;;;;;;3.06;100.00;100041.98;105781;1254;61055;-77
2023/12/02 02:03:13;;;;;;;25.60;18.50;;;;;;;3.07;100.00;100045.23;105807;1254;59731;-79
2023/12/02 02:05:43;;;;;;;27.20;19.00;;;;;;;3.07;100.00;100050.07;105750;1257;72028;-77
2023/12/02 02:08:11;;;;;;;25.60;18.70;;;;;;;3.10;100.00;100053.75;105998;1253;62429;-76
2023/12/02 02:10:39;;;;;;;25.00;18.40;;;;;;;3.09;100.00;100055.32;107197;1253;72453;-76
2023/12/02 02:13:06;;;;;;;26.60;18.80;;;;;;;3.09;100.00;100050.67;108169;1253;59673;-77
2023/12/02 02:15:35;;;;;;;24.30;18.00;;;;;;;3.08;100.00;100044.17;107059;1256;59567;-76
2023/12/02 02:18:02;;;;;;;27.00;19.00;;;;;;;3.07;100.00;100043.84;105905;1260;73031;-79
2023/12/02 02:20:30;;;;;;;24.10;18.60;;;;;;;3.08;100.00;100045.87;105735;1253;62651;-78
2023/12/02 02:22:58;;;;;;;30.10;20.40;;;;;;;3.07;100.00;100059.54;108338;1253;71425;-79
2023/12/02 02:25:31;;;;;;;25.30;18.30;;;;;;;3.09;100.00;100062.92;107750;1255;59761;-78
2023/12/02 02:27:59;;;;;;;22.90;18.00;;;;;;;3.10;100.00;100065.84;105910;1257;59630;-79
2023/12/02 02:30:27;;;;;;;26.70;19.90;;;;;;;3.13;100.00;100071.77;105782;1253;73333;-79
2023/12/02 02:32:54;;;;;;;30.70;21.10;;;;;;;3.17;100.00;100067.13;105766;1258;63600;-77
2023/12/02 02:35:22;;;;;;;27.20;20.30;;;;;;;3.20;100.00;100062.86;105743;1253;71460;-77
2023/12/02 02:37:50;;;;;;;25.80;19.90;;;;;;;3.21;100.00;100059.89;105760;1257;59708;-75
2023/12/02 02:40:19;;;;;;;27.00;18.50;;;;;;;3.22;100.00;100063.30;105815;1253;60076;-76
2023/12/02 02:42:46;;;;;;;27.10;20.20;;;;;;;3.22;100.00;100072.10;105821;1257;73122;-78
2023/12/02 02:45:14;;;;;;;28.20;20.40;;;;;;;3.24;100.00;100081.20;105754;1253;61662;-79
2023/12/02 02:47:42;;;;;;;29.60;20.90;;;;;;;3.28;100.00;100083.45;105811;1253;72667;-78
2023/12/02 02:50:10;;;;;;;27.00;20.50;;;;;;;3.35;100.00;100086.64;105658;1259;61610;-80
2023/12/02 02:52:37;;;;;;;27.30;20.00;;;;;;;3.38;100.00;100087.91;105821;1253;59734;-78
2023/12/02 02:55:05;;;;;;;27.30;19.00;;;;;;;3.41;100.00;100087.96;105631;1259;71637;-80
2023/12/02 02:57:32;;;;;;;28.20;20.00;;;;;;;3.41;100.00;100088.48;105643;1257;65591;-78
2023/12/02 03:00:01;;;;;;;26.10;19.10;;;;;;;3.39;100.00;100089.42;105716;1257;70377;-77
2023/12/02 03:02:28;;;;;;;28.00;20.20;;;;;;;3.39;100.00;100090.65;105688;1257;59746;-77
2023/12/02 03:04:58;;;;;;;27.10;20.00;;;;;;;3.41;100.00;100084.84;105783;1254;60110;-77
2023/12/02 03:07:25;;;;;;;27.80;19.90;;;;;;;3.44;100.00;100079.71;105767;1253;72963;-79
2023/12/02 03:09:53;;;;;;;28.80;20.20;;;;;;;3.47;100.00;100076.66;105744;1254;63685;-78
2023/12/02 03:12:20;;;;;;;28.10;21.40;;;;;;;3.53;100.00;100078.00;105903;1258;72696;-77
2023/12/02 03:14:48;;;;;;;25.80;20.70;;;;;;;3.57;100.00;100077.67;105725;1254;59746;-79
2023/12/02 03:17:20;;;;;;;26.80;20.90;;;;;;;3.59;100.00;100085.89;105881;1257;59671;-77
2023/12/02 03:19:48;;;;;;;27.10;19.70;;;;;;;3.59;100.00;100084.83;105905;1259;73018;-76
2023/12/02 03:22:16;;;;;;;26.70;19.90;;;;;;;3.56;100.00;100090.84;105793;1258;64494;-79
2023/12/02 03:24:45;;;;;;;28.90;20.80;;;;;;;3.52;100.00;100099.09;105848;1258;71394;-78
2023/12/02 03:27:12;;;;;;;25.80;18.90;;;;;;;3.50;100.00;100114.05;105768;1253;59738;-77
2023/12/02 03:29:40;;;;;;;25.50;19.50;;;;;;;3.51;100.00;100120.08;105841;1257;59570;-78
2023/12/02 03:32:08;;;;;;;28.30;21.40;;;;;;;3.53;100.00;100121.35;105685;1258;73075;-77
2023/12/02 03:34:36;;;;;;;30.30;20.80;;;;;;;3.54;100.00;100132.56;105756;1259;64219;-80
2023/12/02 03:37:04;;;;;;;27.70;19.40;;;;;;;3.53;100.00;100133.64;105796;1257;75453;-80
2023/12/02 03:39:32;;;;;;;27.50;20.60;;;;;;;3.54;100.00;100123.40;105895;1257;59692;-79
2023/12/02 03:41:59;;;;;;;27.70;20.40;;;;;;;3.54;100.00;100114.25;105778;1258;59652;-78
2023/12/02 03:44:27;;;;;;;30.60;20.70;;;;;;;3.52;100.00;100102.73;105654;1256;73138;-81
2023/12/02 03:46:55;;;;;;;25.50;19.80;;;;;;;3.50;100.00;100106.79;105699;1257;63599;-79
2023/12/02 03:49:23;;;;;;;29.00;19.90;;;;;;;3.48;100.00;100096.69;105615;1256;70533;-81
2023/12/02 03:51:51;;;;;;;26.40;19.60;;;;;;;3.45;100.00;100101.14;105794;1256;61005;-77
2023/12/02 03:54:19;;;;;;;29.70;20.50;;;;;;;3.42;100.00;100096.91;105680;1258;60148;-79
2023/12/02 03:56:46;;;;;;;28.00;21.00;;;;;;;3.41;100.00;100102.84;105676;1253;71816;-77
2023/12/02 03:59:14;;;;;;;28.60;20.00;;;;;;;3.39;100.00;100107.92;105772;1253;61367;-78
2023/12/02 04:01:41;;;;;;;25.40;20.20;;;;;;;3.35;100.00;100105.64;105828;1253;72805;-78
2023/12/02 04:04:09;;;;;;;28.30;21.40;;;;;;;3.31;100.00;100110.80;105712;1255;59757;-78
2023/12/02 04:06:38;;;;;;;31.20;22.00;;;;;;;3.31;100.00;100120.14;105776;1257;60899;-78
2023/12/02 04:09:06;;;;;;;34.40;24.70;;;;;;;3.33;100.00;100134.73;105821;1259;73347;-77
2023/12/02 04:11:34;;;;;;;28.80;22.60;;;;;;;3.34;100.00;100141.29;105792;1253;62815;-79
2023/12/02 04:14:01;;;;;;;29.50;21.80;;;;;;;3.36;100.00;100151.04;105789;1259;71592;-79
2023/12/02 04:16:29;;;;;;;31.30;22.50;;;;;;;3.39;100.00;100149.73;105720;1255;60969;-77
2023/12/02 04:18:56;;;;;;;27.20;20.80;;;;;;;3.40;100.00;100152.12;106627;1257;59507;-76
2023/12/02 04:21:26;;;;;;;29.80;21.80;;;;;;;3.41;100.00;100162.08;105886;1254;73046;-78
2023/12/02 04:23:54;;;;;;;36.40;23.40;;;;;;;3.42;100.00;100152.03;105852;1253;61448;-79
2023/12/02 04:26:22;;;;;;;31.70;22.00;;;;;;;3.43;100.00;100133.86;105819;1254;73817;-77
2023/12/02 04:28:50;;;;;;;29.40;20.50;;;;;;;3.42;100.00;100128.51;105582;1267;60364;-77
2023/12/02 04:31:17;;;;;;;31.80;21.30;;;;;;;3.40;100.00;100120.16;105841;1259;59682;-77
2023/12/02 04:33:45;;;;;;;30.00;20.20;;;;;;;3.34;100.00;100116.23;107126;1257;73206;-77
2023/12/02 04:36:14;;;;;;;32.20;22.60;;;;;;;3.27;100.00;100114.23;107557;1257;62569;-76
2023/12/02 04:38:42;;;;;;;31.00;22.10;;;;;;;3.26;100.00;100110.13;106039;1256;71226;-78
2023/12/02 04:41:10;;;;;;;31.90;21.90;;;;;;;3.24;100.00;100105.90;105830;1253;60974;-77
2023/12/02 04:43:37;;;;;;;30.80;21.50;;;;;;;3.21;100.00;100101.35;105692;1260;59536;-77
2023/12/02 04:46:06;;;;;;;29.10;21.80;;;;;;;3.21;100.00;100101.70;105782;1259;73932;-78
2023/12/02 04:48:34;;;;;;;28.00;20.80;;;;;;;3.22;100.00;100102.00;105885;1257;63765;-78
2023/12/02 04:51:03;;;;;;;29.50;19.40;;;;;;;3.25;100.00;100112.24;105784;1252;72681;-80
2023/12/02 04:53:30;;;;;;;29.10;20.80;;;;;;;3.26;100.00;100118.10;105832;1258;61526;-76
2023/12/02 04:55:58;;;;;;;28.20;20.20;;;;;;;3.25;100.00;100125.88;105734;1258;59673;-80
2023/12/02 04:58:26;;;;;;;28.90;21.20;;;;;;;3.22;100.00;100129.81;105699;1252;71635;-79
2023/12/02 05:00:54;;;;;;;27.20;20.20;;;;;;;3.17;100.00;100134.67;105846;1257;63888;-77
2023/12/02 05:03:21;;;;;;;29.20;20.80;;;;;;;3.15;100.00;100147.84;105732;1257;71537;-79
2023/12/02 05:05:49;;;;;;;26.90;20.20;;;;;;;3.18;100.00;100156.71;105712;1256;60083;-79
2023/12/02 05:08:17;;;;;;;28.50;21.00;;;;;;;3.22;100.00;100158.15;105576;1257;60770;-79
2023/12/02 05:10:44;;;;;;;29.00;21.70;;;;;;;3.26;100.00;100158.16;105704;1258;73845;-78
2023/12/02 05:13:12;;;;;;;28.80;20.30;;;;;;;3.27;100.00;100144.98;105611;1258;62798;-77
2023/12/02 05:15:40;;;;;;;26.50;21.10;;;;;;;3.29;100.00;100138.00;105754;1254;71480;-77
2023/12/02 05:18:11;;;;;;;27.40;20.50;;;;;;;3.29;100.00;100127.98;105781;1254;60877;-79
2023/12/02 05:20:41;;;;;;;28.30;20.00;;;;;;;3.27;100.00;100127.19;105752;1256;60540;-77
2023/12/02 05:23:09;;;;;;;24.80;18.30;;;;;;;3.26;100.00;100139.15;105758;1254;73841;-78
2023/12/02 05:25:37;;;;;;;27.20;19.40;;;;;;;3.25;100.00;100146.80;105726;1258;62793;-78
2023/12/02 05:28:04;;;;;;;27.80;19.40;;;;;;;3.20;100.00;100150.62;105708;1254;72818;-80
2023/12/02 05:30:34;;;;;;;26.00;19.10;;;;;;;3.15;100.00;100146.14;105766;1257;60488;-78
2023/12/02 05:33:02;;;;;;;25.50;18.60;;;;;;;3.11;100.00;100140.74;105804;1257;60768;-78
2023/12/02 05:35:31;;;;;;;27.00;18.90;;;;;;;3.12;100.00;100140.02;105747;1254;71819;-77
2023/12/02 05:37:59;;;;;;;26.60;19.60;;;;;;;3.15;100.00;100148.40;105936;1257;63945;-75
2023/12/02 05:40:28;;;;;;;28.10;20.60;;;;;;;3.16;100.00;100157.84;105752;1256;71487;-78
2023/12/02 05:42:55;;;;;;;25.80;19.10;;;;;;;3.18;100.00;100162.92;105712;1258;60960;-79
2023/12/02 05:45:23;;;;;;;23.70;17.30;;;;;;;3.21;100.00;100163.04;105766;1257;60407;-76
2023/12/02 05:47:51;;;;;;;23.30;18.20;;;;;;;3.20;100.00;100163.05;105745;1253;72601;-78
2023/12/02 05:50:19;;;;;;;26.80;18.70;;;;;;;3.19;100.00;100175.88;105751;1252;63245;-80
2023/12/02 05:52:46;;;;;;;26.20;18.00;;;;;;;3.21;100.00;100172.88;105653;1254;71683;-78
2023/12/02 05:55:14;;;;;;;25.30;17.90;;;;;;;3.22;100.00;100172.29;105783;1254;60868;-78
2023/12/02 05:57:45;;;;;;;26.10;17.70;;;;;;;3.21;100.00;100169.06;105744;1257;60561;-79
2023/12/02 06:00:16;;;;;;;26.80;18.00;;;;;;;3.21;100.00;100165.77;106077;1254;73848;-76
2023/12/02 06:02:45;;;;;;;26.10;19.50;;;;;;;3.18;100.00;100150.68;108665;1252;62912;-76
2023/12/02 06:05:13;;;;;;;25.50;17.90;;;;;;;3.19;100.00;100153.09;106127;1259;71421;-77
2023/12/02 06:07:41;;;;;;;22.00;17.50;;;;;;;3.21;100.00;100166.83;105875;1254;60485;-80
2023/12/02 06:10:09;;;;;;;22.10;16.70;;;;;;;3.23;100.00;100158.29;105751;1254;60443;-80
2023/12/02 06:12:36;;;;;;;22.50;17.60;;;;;;;3.21;100.00;100140.73;105781;1257;73851;-78
2023/12/02 06:15:06;;;;;;;27.10;19.70;;;;;;;3.17;100.00;100151.23;105711;1257;62326;-77
2023/12/02 06:17:34;;;;;;;23.80;17.60;;;;;;;3.19;100.00;100163.42;105766;1257;71038;-77
2023/12/02 06:20:02;;;;;;;23.70;17.10;;;;;;;3.24;100.00;100164.80;105664;1256;60910;-78
2023/12/02 06:22:33;;;;;;;20.00;16.10;;;;;;;3.27;100.00;100164.19;106057;1254;60524;-76
2023/12/02 06:25:02;;;;;;;19.20;15.70;;;;;;;3.26;100.00;100173.16;105786;1253;74988;-79
2023/12/02 06:27:29;;;;;;;23.00;16.80;;;;;;;3.26;100.00;100190.98;105651;1255;64223;-79
2023/12/02 06:29:58;;;;;;;19.50;14.80;;;;;;;3.28;100.00;100201.11;105741;1256;73504;-79
2023/12/02 06:32:25;;;;;;;21.50;14.80;;;;;;;3.27;100.00;100200.10;109551;1252;59643;-76
2023/12/02 06:34:53;;;;;;;20.10;14.90;;;;;;;3.26;100.00;100202.36;109609;1252;60086;-76
2023/12/02 06:37:21;;;;;;;17.60;14.00;;;;;;;3.27;100.00;100211.17;109600;1254;73185;-77
2023/12/02 06:39:48;;;;;;;18.10;13.90;;;;;;;3.27;100.00;100214.59;109561;1253;62851;-76
2023/12/02 06:42:16;;;;;;;19.50;15.50;;;;;;;3.28;100.00;100209.20;109607;1253;72952;-76
2023/12/02 06:44:44;;;;;;;18.60;13.50;;;;;;;3.28;100.00;100207.30;109550;1252;60899;-77
2023/12/02 06:47:13;;;;;;;17.80;13.30;;;;;;;3.29;100.00;100206.06;109569;1252;60270;-76
2023/12/02 06:49:40;;;;;;;18.00;13.50;;;;;;;3.28;100.00;100198.30;109432;1254;74010;-76
2023/12/02 06:52:08;;;;;;;19.30;14.80;;;;;;;3.30;100.00;100208.45;109565;1253;63709;-76
2023/12/02 06:54:36;;;;;;;18.10;14.20;;;;;;;3.35;100.00;100216.75;109511;1254;72731;-78
2023/12/02 06:57:04;;;;;;;17.60;13.20;;;;;;;3.37;100.00;100208.52;109522;1253;59581;-78
2023/12/02 06:59:32;;;;;;;17.10;13.10;;;;;;;3.36;100.00;100211.00;109622;1252;60025;-77
2023/12/02 07:02:00;;;;;;;19.10;14.40;;;;;;;3.37;100.00;100211.52;109571;1253;73878;-78
2023/12/02 07:04:28;;;;;;;20.80;15.10;;;;;;;3.38;100.00;100211.78;109569;1254;63775;-77
2023/12/02 07:06:55;;;;;;;18.30;14.60;;;;;;;3.41;100.00;100212.89;109573;1253;72712;-77
2023/12/02 07:09:26;;;;;;;18.90;14.50;;;;;;;3.46;100.00;100219.61;109591;1254;60829;-78
2023/12/02 07:11:54;;;;;;;19.90;14.90;;;;;;;3.49;100.00;100214.80;109596;1254;60142;-78
2023/12/02 07:14:22;;;;;;;20.70;16.00;;;;;;;3.51;100.00;100209.75;109591;1254;73875;-77
2023/12/02 07:16:50;;;;;;;16.30;13.50;;;;;;;3.53;100.00;100207.62;109583;1253;66089;-78
2023/12/02 07:19:18;;;;;;;17.70;13.80;;;;;;;3.56;100.00;100191.27;109601;1253;71725;-79
2023/12/02 07:21:47;;;;;;;20.10;15.20;;;;;;;3.53;100.00;100185.14;109521;1253;61011;-77
2023/12/02 07:24:15;;;;;;;25.50;17.00;;;;;;;3.49;100.00;100177.86;109591;1254;59599;-79
2023/12/02 07:26:43;;;;;;;24.70;17.40;;;;;;;3.47;100.00;100182.59;109589;1253;72992;-76
2023/12/02 07:29:10;;;;;;;26.90;17.90;;;;;;;3.48;100.00;100191.36;109525;1253;62424;-76
2023/12/02 07:31:41;;;;;;;26.90;18.60;;;;;;;3.51;100.00;100187.28;109547;1252;71342;-77
2023/12/02 07:34:09;;;;;;;25.70;18.80;;;;;;;3.55;100.00;100181.95;109604;1254;59906;-78
2023/12/02 07:36:38;;;;;;;29.20;22.00;;;;;;;3.57;100.00;100181.02;109553;1253;60805;-78
2023/12/02 07:39:07;;;;;;;24.90;19.40;;;;;;;3.56;100.00;100174.33;109521;1251;74249;-76
2023/12/02 07:41:34;;;;;;;27.20;19.80;;;;;;;3.58;100.00;100179.95;109590;1252;62574;-78
2023/12/02 07:44:02;;;;;;;27.40;19.50;;;;;;;3.60;100.00;100177.62;109563;1254;72680;-78
2023/12/02 07:46:29;;;;;;;26.70;20.50;;;;;;;3.65;100.00;100194.38;109538;1253;59951;-77
2023/12/02 07:48:57;;;;;;;30.70;21.70;;;;;;;3.68;100.00;100195.11;109568;1253;58439;-78
2023/12/02 07:51:25;;;;;;;33.50;22.50;;;;;;;3.69;100.00;100186.77;109517;1252;74392;-77
2023/12/02 07:53:53;;;;;;;32.40;23.60;;;;;;;3.72;100.00;100190.10;109441;1253;62462;-78
2023/12/02 07:56:21;;;;;;;32.40;23.00;;;;;;;3.76;100.00;100185.29;109546;1254;71744;-77
2023/12/02 07:58:48;;;;;;;32.50;21.20;;;;;;;3.82;100.00;100189.39;109472;1253;60959;-79
2023/12/02 08:01:16;;;;;;;26.00;20.20;;;;;;;3.84;100.00;100184.81;109569;1253;58992;-76
2023/12/02 08:03:44;;;;;;;29.10;18.90;;;;;;;3.83;100.00;100188.66;109613;1253;73813;-76
2023/12/02 08:06:11;;;;;;;26.00;20.00;;;;;;;3.81;100.00;100190.98;109766;1252;62442;-77
2023/12/02 08:08:43;;;;;;;24.40;16.70;;;;;;;3.81;100.00;100189.23;109604;1254;71397;-77
2023/12/02 08:11:10;;;;;;;27.30;17.90;;;;;;;3.81;100.00;100196.52;109503;1255;59707;-79
2023/12/02 08:13:38;;;;;;;28.00;20.70;;;;;;;3.79;100.00;100203.84;109584;1252;58422;-78
2023/12/02 08:16:05;;;;;;;23.00;17.50;;;;;;;3.83;100.00;100206.98;109582;1252;76243;-78
2023/12/02 08:18:33;;;;;;;23.90;16.80;;;;;;;3.89;100.00;100205.20;109546;1252;63756;-77
2023/12/02 08:21:05;;;;;;;25.10;16.30;;;;;;;3.89;100.00;100195.33;109689;1253;72673;-78
2023/12/02 08:23:32;;;;;;;20.90;15.20;;;;;;;3.92;100.00;100191.05;109513;1252;61300;-78
2023/12/02 08:26:01;;;;;;;22.20;14.30;;;;;;;3.96;100.00;100189.35;109609;1253;58875;-79
2023/12/02 08:28:29;;;;;;;17.80;13.80;;;;;;;3.98;100.00;100194.30;109575;1253;76565;-77
2023/12/02 08:30:57;;;;;;;17.60;12.40;;;;;;;4.01;100.00;100208.52;109586;1253;62599;-78
2023/12/02 08:33:24;;;;;;;14.00;11.10;;;;;;;4.06;100.00;100210.58;109509;1253;72700;-78
2023/12/02 08:35:54;;;;;;;18.60;11.40;;;;;;;4.05;100.00;100208.02;109513;1254;60813;-78
2023/12/02 08:38:22;;;;;;;11.70;9.40;;;;;;;4.01;100.00;100208.52;109532;1253;59374;-79
2023/12/02 08:40:51;;;;;;;11.80;9.90;;;;;;;3.96;100.00;100230.15;109571;1252;73912;-79
2023/12/02 08:43:19;;;;;;;11.20;9.20;;;;;;;3.92;100.00;100227.02;109548;1251;63729;-79
2023/12/02 08:46:29;;;;;;;10.40;9.20;;;;;;;3.90;100.00;100207.73;109536;1252;72707;-80
2023/12/02 08:48:56;;;;;;;12.80;10.10;;;;;;;3.86;100.00;100199.44;109500;1253;59721;-78
2023/12/02 08:51:24;;;;;;;11.60;9.90;;;;;;;3.84;100.00;100201.05;109571;1252;59933;-80
2023/12/02 08:53:57;;;;;;;13.30;9.50;;;;;;;3.85;100.00;100190.47;109530;1252;73935;-79
2023/12/02 08:57:14;;;;;;;18.10;11.20;;;;;;;3.85;100.00;100187.54;109460;1253;62716;-80
2023/12/02 08:59:49;;;;;;;15.90;10.40;;;;;;;3.85;100.00;100175.26;109520;1252;71768;-78
2023/12/02 09:02:16;;;;;;;16.00;10.70;;;;;;;3.87;100.00;100173.96;109522;1253;60908;-80
2023/12/02 09:04:44;;;;;;;12.80;10.20;;;;;;;3.90;100.00;100181.10;109585;1252;59985;-77
2023/12/02 09:07:12;;;;;;;15.60;10.90;;;;;;;3.95;100.00;100188.16;109559;1253;72637;-79
2023/12/02 09:09:43;;;;;;;12.80;10.00;;;;;;;3.99;100.00;100182.17;109550;1253;62690;-78
2023/12/02 09:12:11;;;;;;;15.60;11.00;;;;;;;3.99;100.00;100175.91;109428;1251;73516;-81
2023/12/02 09:14:39;;;;;;;12.40;9.90;;;;;;;4.02;100.00;100175.97;109554;1252;60859;-79
2023/12/02 09:17:06;;;;;;;13.40;10.20;;;;;;;4.01;100.00;100175.50;109579;1252;59048;-79
2023/12/02 09:19:53;;;;;;;13.90;10.30;;;;;;;3.97;100.00;100176.17;109540;1254;73909;-79
2023/12/02 09:22:30;;;;;;;13.50;10.40;;;;;;;3.93;100.00;100170.44;109576;1252;62883;-81
2023/12/02 09:24:57;;;;;;;14.70;11.40;;;;;;;3.92;100.00;100173.92;109528;1252;72696;-77
2023/12/02 09:27:52;;;;;;;14.90;9.80;;;;;;;3.93;100.00;100176.49;109533;1252;59812;-79
2023/12/02 09:30:20;;;;;;;14.90;10.80;;;;;;;3.94;100.00;100170.25;109510;1253;58807;-80
2023/12/02 09:32:48;;;;;;;15.20;11.50;;;;;;;3.95;100.00;100159.46;109566;1252;73817;-80
2023/12/02 09:35:15;;;;;;;14.10;10.90;;;;;;;3.96;100.00;100148.01;109569;1252;63519;-79
2023/12/02 09:37:52;;;;;;;13.30;9.40;;;;;;;3.93;100.00;100140.35;109600;1252;71842;-77
2023/12/02 09:40:23;;;;;;;10.90;9.60;;;;;;;3.91;100.00;100140.07;109538;1252;60959;-79
2023/12/02 09:43:13;;;;;;;10.30;8.60;;;;;;;3.89;100.00;100141.56;109621;1252;58850;-80
2023/12/02 09:46:05;;;;;;;12.70;9.70;;;;;;;3.88;100.00;100141.09;109578;1252;73881;-79
2023/12/02 09:48:56;;;;;;;;;;;;;;;3.87;100.00;100148.38;109669;1252;64889;-80
2023/12/02 09:51:45;;;;;;;10.80;8.80;;;;;;;3.82;100.00;100149.95;109591;1252;72593;-77
2023/12/02 09:54:37;;;;;;;13.10;8.80;;;;;;;3.83;100.00;100148.88;109556;1252;59657;-79
2023/12/02 09:57:16;;;;;;;13.60;9.00;;;;;;;3.88;100.00;100142.81;109478;1252;58805;-78
2023/12/02 10:00:12;;;;;;;16.30;9.90;;;;;;;3.92;100.00;100146.63;109325;1252;73909;-77
2023/12/02 10:02:51;;;;;;;15.30;10.10;;;;;;;3.92;100.00;100141.95;109578;1252;63624;-81
2023/12/02 10:05:19;;;;;;;16.70;11.00;;;;;;;3.90;100.00;100131.14;109552;1253;72485;-78
2023/12/02 10:08:26;;;;;;;14.10;10.30;;;;;;;3.89;100.00;100130.69;109557;1252;59651;-79
2023/12/02 10:11:39;;;;;;;14.90;11.70;;;;;;;3.87;100.00;100140.27;109551;1252;61000;-80
2023/12/02 10:14:11;;;;;;;16.10;11.70;;;;;;;3.85;100.00;100137.06;109562;1251;72993;-79
2023/12/02 10:16:41;;;;;;;15.30;11.40;;;;;;;3.84;100.00;100125.34;109580;1252;62245;-78
2023/12/02 10:19:17;;;;;;;15.00;10.40;;;;;;;3.85;100.00;100124.60;109636;1252;70964;-77
2023/12/02 10:21:46;;;;;;;15.40;11.30;;;;;;;3.85;100.00;100129.77;109355;1253;59593;-79
2023/12/02 10:24:14;;;;;;;18.10;13.80;;;;;;;3.85;100.00;100130.66;109441;1252;58936;-78
2023/12/02 10:27:02;;;;;;;16.00;11.40;;;;;;;3.82;100.00;100133.70;109510;1252;74108;-77
2023/12/02 10:29:48;;;;;;;18.50;12.10;;;;;;;3.82;100.00;100136.98;109513;1252;62797;-78
2023/12/02 10:32:44;;;;;;;18.40;12.50;;;;;;;3.82;100.00;100130.77;109294;1253;71482;-79
2023/12/02 10:35:26;;;;;;;15.60;13.40;;;;;;;3.83;100.00;100121.89;109501;1253;59711;-80
2023/12/02 10:38:32;;;;;;;17.00;14.40;;;;;;;3.84;100.00;100116.35;109253;1253;60167;-77
2023/12/02 10:41:14;;;;;;;22.90;15.20;;;;;;;3.87;100.00;100116.73;109593;1252;73935;-79
2023/12/02 10:43:42;;;;;;;20.60;13.70;;;;;;;3.88;100.00;100119.49;109609;1252;62463;-77
2023/12/02 10:46:11;;;;;;;20.00;13.80;;;;;;;3.85;100.00;100127.20;109572;1252;72735;-80
2023/12/02 10:48:40;;;;;;;19.50;14.40;;;;;;;3.84;100.00;100113.74;109552;1252;60046;-79
2023/12/02 10:51:08;;;;;;;19.20;13.00;;;;;;;3.87;100.00;100119.16;109575;1252;59285;-79
2023/12/02 10:53:37;;;;;;;18.80;12.90;;;;;;;3.88;100.00;100121.20;109576;1256;76026;-79
2023/12/02 10:56:10;;;;;;;19.10;13.00;;;;;;;3.86;100.00;100122.83;109583;1255;64213;-79
2023/12/02 10:58:39;;;;;;;17.90;12.60;;;;;;;3.84;100.00;100125.50;109373;1255;73246;-78
2023/12/02 11:01:08;;;;;;;15.90;10.70;;;;;;;3.81;100.00;100124.40;109236;1255;59696;-79
2023/12/02 11:03:54;;;;;;;14.90;10.70;;;;;;;3.82;100.00;100129.40;109246;1256;59026;-78
2023/12/02 11:06:27;;;;;;;13.70;11.20;;;;;;;3.84;100.00;100139.86;109243;1255;72205;-79
2023/12/02 11:09:16;;;;;;;19.60;10.70;;;;;;;3.85;100.00;100148.98;109180;1256;62885;-80
2023/12/02 11:12:21;;;;;;;11.60;9.70;;;;;;;3.86;100.00;100155.17;109226;1255;71337;-79
2023/12/02 11:14:49;;;;;;;16.00;10.20;;;;;;;3.88;100.00;100145.41;109190;1257;61168;-78
2023/12/02 11:17:25;;;;;;;16.80;11.20;;;;;;;3.91;100.00;100136.98;109095;1256;61382;-78